sensor_id;sensor_type;location;lat;lon;timestamp;temperature;humidity
44894;DHT22;30625;52.206;21.030;2023-04-03T00:01:22;2.80;99.90
44894;DHT22;30625;52.206;21.030;2023-04-03T00:03:47;3.20;99.90
44894;DHT22;30625;52.206;21.030;2023-04-03T00:06:13;2.70;99.90
44894;DHT22;30625;52.206;21.030;2023-04-03T00:08:40;2.70;99.90
44894;DHT22;30625;52.206;21.030;2023-04-03T00:11:15;2.70;99.90
44894;DHT22;30625;52.206;21.030;2023-04-03T00:13:45;2.70;99.90
44894;DHT22;30625;52.206;21.030;2023-04-03T00:16:11;2.60;99.90
44894;DHT22;30625;52.206;21.030;2023-04-03T00:18:38;2.60;99.90
44894;DHT22;30625;52.206;21.030;2023-04-03T00:21:05;2.60;99.90
44894;DHT22;30625;52.206;21.030;2023-04-03T00:23:31;2.50;99.90
44894;DHT22;30625;52.206;21.030;2023-04-03T00:25:57;2.50;99.90
44894;DHT22;30625;52.206;21.030;2023-04-03T00:28:23;2.40;99.90
44894;DHT22;30625;52.206;21.030;2023-04-03T00:30:50;2.40;99.90
44894;DHT22;30625;52.206;21.030;2023-04-03T00:33:15;2.40;99.90
44894;DHT22;30625;52.206;21.030;2023-04-03T00:35:41;2.40;99.90
44894;DHT22;30625;52.206;21.030;2023-04-03T00:38:07;2.40;99.90
44894;DHT22;30625;52.206;21.030;2023-04-03T00:40:36;2.30;99.90
44894;DHT22;30625;52.206;21.030;2023-04-03T00:43:15;2.30;99.90
44894;DHT22;30625;52.206;21.030;2023-04-03T00:45:45;2.30;99.90
44894;DHT22;30625;52.206;21.030;2023-04-03T00:48:15;2.20;99.90
44894;DHT22;30625;52.206;21.030;2023-04-03T00:50:43;3.20;99.90
44894;DHT22;30625;52.206;21.030;2023-04-03T00:53:14;1.20;99.90
44894;DHT22;30625;52.206;21.030;2023-04-03T00:55:42;3.50;99.90
44894;DHT22;30625;52.206;21.030;2023-04-03T00:58:08;1.00;99.90
44894;DHT22;30625;52.206;21.030;2023-04-03T01:00:38;2.10;99.90
44894;DHT22;30625;52.206;21.030;2023-04-03T01:03:05;1.90;99.90
44894;DHT22;30625;52.206;21.030;2023-04-03T01:05:34;2.00;99.90
44894;DHT22;30625;52.206;21.030;2023-04-03T01:08:00;2.70;99.90
44894;DHT22;30625;52.206;21.030;2023-04-03T01:10:26;2.00;99.90
44894;DHT22;30625;52.206;21.030;2023-04-03T01:12:52;3.40;99.90
44894;DHT22;30625;52.206;21.030;2023-04-03T01:15:26;1.90;99.90
44894;DHT22;30625;52.206;21.030;2023-04-03T01:17:57;1.90;99.90
44894;DHT22;30625;52.206;21.030;2023-04-03T01:25:50;2.80;99.90
44894;DHT22;30625;52.206;21.030;2023-04-03T01:28:20;1.90;99.90
44894;DHT22;30625;52.206;21.030;2023-04-03T01:31:12;1.80;99.90
44894;DHT22;30625;52.206;21.030;2023-04-03T01:33:41;1.80;99.90
44894;DHT22;30625;52.206;21.030;2023-04-03T01:36:08;1.80;99.90
44894;DHT22;30625;52.206;21.030;2023-04-03T01:38:34;1.80;99.90
44894;DHT22;30625;52.206;21.030;2023-04-03T01:41:00;1.70;99.90
44894;DHT22;30625;52.206;21.030;2023-04-03T01:46:02;1.70;99.90
44894;DHT22;30625;52.206;21.030;2023-04-03T01:48:27;1.70;99.90
44894;DHT22;30625;52.206;21.030;2023-04-03T01:50:53;1.60;99.90
44894;DHT22;30625;52.206;21.030;2023-04-03T01:53:19;1.60;99.90
44894;DHT22;30625;52.206;21.030;2023-04-03T01:55:45;1.60;99.90
44894;DHT22;30625;52.206;21.030;2023-04-03T01:58:11;1.60;99.90
44894;DHT22;30625;52.206;21.030;2023-04-03T02:00:36;1.60;99.90
44894;DHT22;30625;52.206;21.030;2023-04-03T02:03:02;1.70;99.90
44894;DHT22;30625;52.206;21.030;2023-04-03T02:05:28;1.50;99.90
44894;DHT22;30625;52.206;21.030;2023-04-03T02:07:54;1.50;99.90
44894;DHT22;30625;52.206;21.030;2023-04-03T02:10:20;1.50;99.90
44894;DHT22;30625;52.206;21.030;2023-04-03T02:12:46;1.70;99.90
44894;DHT22;30625;52.206;21.030;2023-04-03T02:15:11;1.50;99.90
44894;DHT22;30625;52.206;21.030;2023-04-03T02:17:37;1.50;99.90
44894;DHT22;30625;52.206;21.030;2023-04-03T02:20:03;1.50;99.90
44894;DHT22;30625;52.206;21.030;2023-04-03T02:22:29;1.40;99.90
44894;DHT22;30625;52.206;21.030;2023-04-03T02:24:55;1.40;99.90
44894;DHT22;30625;52.206;21.030;2023-04-03T02:27:21;1.70;99.90
44894;DHT22;30625;52.206;21.030;2023-04-03T02:29:46;1.80;99.90
44894;DHT22;30625;52.206;21.030;2023-04-03T02:32:12;1.30;99.90
44894;DHT22;30625;52.206;21.030;2023-04-03T02:34:38;2.30;99.90
44894;DHT22;30625;52.206;21.030;2023-04-03T02:37:03;1.70;99.90
44894;DHT22;30625;52.206;21.030;2023-04-03T02:39:29;1.30;99.90
44894;DHT22;30625;52.206;21.030;2023-04-03T02:41:55;1.20;99.90
44894;DHT22;30625;52.206;21.030;2023-04-03T02:44:20;1.20;99.90
44894;DHT22;30625;52.206;21.030;2023-04-03T02:46:46;1.20;99.90
44894;DHT22;30625;52.206;21.030;2023-04-03T02:49:12;1.20;99.90
44894;DHT22;30625;52.206;21.030;2023-04-03T02:51:38;1.20;99.90
44894;DHT22;30625;52.206;21.030;2023-04-03T02:54:03;1.20;99.90
44894;DHT22;30625;52.206;21.030;2023-04-03T02:56:29;1.10;99.90
44894;DHT22;30625;52.206;21.030;2023-04-03T02:58:55;1.10;99.90
44894;DHT22;30625;52.206;21.030;2023-04-03T03:01:21;1.10;99.90
44894;DHT22;30625;52.206;21.030;2023-04-03T03:03:46;1.10;99.90
44894;DHT22;30625;52.206;21.030;2023-04-03T03:06:14;1.10;99.90
44894;DHT22;30625;52.206;21.030;2023-04-03T03:08:40;1.10;99.90
44894;DHT22;30625;52.206;21.030;2023-04-03T03:11:06;1.10;99.90
44894;DHT22;30625;52.206;21.030;2023-04-03T03:13:33;1.10;99.90
44894;DHT22;30625;52.206;21.030;2023-04-03T03:15:59;1.10;99.90
44894;DHT22;30625;52.206;21.030;2023-04-03T03:18:24;1.10;99.90
44894;DHT22;30625;52.206;21.030;2023-04-03T03:20:55;1.10;99.90
44894;DHT22;30625;52.206;21.030;2023-04-03T03:23:23;1.10;99.90
44894;DHT22;30625;52.206;21.030;2023-04-03T03:25:53;1.10;99.90
44894;DHT22;30625;52.206;21.030;2023-04-03T03:28:19;1.20;99.90
44894;DHT22;30625;52.206;21.030;2023-04-03T03:30:45;1.30;99.90
44894;DHT22;30625;52.206;21.030;2023-04-03T03:33:11;1.00;99.90
44894;DHT22;30625;52.206;21.030;2023-04-03T03:35:36;1.00;99.90
44894;DHT22;30625;52.206;21.030;2023-04-03T03:38:02;1.00;99.90
44894;DHT22;30625;52.206;21.030;2023-04-03T03:40:28;1.00;99.90
44894;DHT22;30625;52.206;21.030;2023-04-03T03:42:53;1.00;99.90
44894;DHT22;30625;52.206;21.030;2023-04-03T03:45:19;0.90;99.90
44894;DHT22;30625;52.206;21.030;2023-04-03T03:47:45;0.90;99.90
44894;DHT22;30625;52.206;21.030;2023-04-03T03:50:11;0.90;99.90
44894;DHT22;30625;52.206;21.030;2023-04-03T03:52:36;0.80;99.90
44894;DHT22;30625;52.206;21.030;2023-04-03T03:55:02;0.80;99.90
44894;DHT22;30625;52.206;21.030;2023-04-03T03:57:28;0.80;99.90
44894;DHT22;30625;52.206;21.030;2023-04-03T03:59:54;0.80;99.90
44894;DHT22;30625;52.206;21.030;2023-04-03T04:02:20;1.80;99.90
44894;DHT22;30625;52.206;21.030;2023-04-03T04:04:46;1.10;99.90
44894;DHT22;30625;52.206;21.030;2023-04-03T04:07:11;0.80;99.90
44894;DHT22;30625;52.206;21.030;2023-04-03T04:09:37;0.80;99.90
44894;DHT22;30625;52.206;21.030;2023-04-03T04:12:03;0.80;99.90
44894;DHT22;30625;52.206;21.030;2023-04-03T04:14:29;0.80;99.90
44894;DHT22;30625;52.206;21.030;2023-04-03T04:16:54;0.80;99.90
44894;DHT22;30625;52.206;21.030;2023-04-03T04:19:20;1.20;99.90
44894;DHT22;30625;52.206;21.030;2023-04-03T04:21:45;0.70;99.90
44894;DHT22;30625;52.206;21.030;2023-04-03T04:24:11;0.70;99.90
44894;DHT22;30625;52.206;21.030;2023-04-03T04:26:37;0.90;99.90
44894;DHT22;30625;52.206;21.030;2023-04-03T04:29:03;0.80;99.90
44894;DHT22;30625;52.206;21.030;2023-04-03T04:31:28;0.70;99.90
44894;DHT22;30625;52.206;21.030;2023-04-03T04:33:54;0.90;99.90
44894;DHT22;30625;52.206;21.030;2023-04-03T04:36:20;1.20;99.90
44894;DHT22;30625;52.206;21.030;2023-04-03T04:38:45;0.80;99.90
44894;DHT22;30625;52.206;21.030;2023-04-03T04:41:11;0.70;99.90
44894;DHT22;30625;52.206;21.030;2023-04-03T04:43:37;0.70;99.90
44894;DHT22;30625;52.206;21.030;2023-04-03T04:46:11;0.70;99.90
44894;DHT22;30625;52.206;21.030;2023-04-03T04:48:37;0.80;99.90
44894;DHT22;30625;52.206;21.030;2023-04-03T04:51:03;0.70;99.90
44894;DHT22;30625;52.206;21.030;2023-04-03T04:53:29;0.70;99.90
44894;DHT22;30625;52.206;21.030;2023-04-03T04:55:55;0.70;99.90
44894;DHT22;30625;52.206;21.030;2023-04-03T04:58:21;0.70;99.90
44894;DHT22;30625;52.206;21.030;2023-04-03T05:00:46;0.80;99.90
44894;DHT22;30625;52.206;21.030;2023-04-03T05:03:12;0.70;99.90
44894;DHT22;30625;52.206;21.030;2023-04-03T05:05:38;0.80;99.90
44894;DHT22;30625;52.206;21.030;2023-04-03T05:08:04;0.90;99.90
44894;DHT22;30625;52.206;21.030;2023-04-03T05:10:33;0.80;99.90
44894;DHT22;30625;52.206;21.030;2023-04-03T05:12:59;0.80;99.90
44894;DHT22;30625;52.206;21.030;2023-04-03T05:15:24;0.80;99.90
44894;DHT22;30625;52.206;21.030;2023-04-03T05:17:50;1.00;99.90
44894;DHT22;30625;52.206;21.030;2023-04-03T05:20:16;0.80;99.90
44894;DHT22;30625;52.206;21.030;2023-04-03T05:22:42;0.90;99.90
44894;DHT22;30625;52.206;21.030;2023-04-03T05:25:08;1.40;99.90
44894;DHT22;30625;52.206;21.030;2023-04-03T05:27:34;1.00;99.90
44894;DHT22;30625;52.206;21.030;2023-04-03T05:30:00;1.00;99.90
44894;DHT22;30625;52.206;21.030;2023-04-03T05:32:26;1.10;99.90
44894;DHT22;30625;52.206;21.030;2023-04-03T05:34:53;1.20;99.90
44894;DHT22;30625;52.206;21.030;2023-04-03T05:37:19;1.40;99.90
44894;DHT22;30625;52.206;21.030;2023-04-03T05:39:44;1.70;99.50
44894;DHT22;30625;52.206;21.030;2023-04-03T05:42:10;3.20;99.10
44894;DHT22;30625;52.206;21.030;2023-04-03T05:44:37;3.30;98.40
44894;DHT22;30625;52.206;21.030;2023-04-03T05:47:03;2.60;96.90
44894;DHT22;30625;52.206;21.030;2023-04-03T05:49:28;2.80;97.10
44894;DHT22;30625;52.206;21.030;2023-04-03T05:51:54;2.80;97.00
44894;DHT22;30625;52.206;21.030;2023-04-03T05:54:25;3.10;97.00
44894;DHT22;30625;52.206;21.030;2023-04-03T05:56:51;3.50;95.70
44894;DHT22;30625;52.206;21.030;2023-04-03T05:59:18;3.70;94.70
44894;DHT22;30625;52.206;21.030;2023-04-03T06:01:44;5.20;95.50
44894;DHT22;30625;52.206;21.030;2023-04-03T06:04:10;5.00;94.00
44894;DHT22;30625;52.206;21.030;2023-04-03T06:06:52;5.70;93.70
44894;DHT22;30625;52.206;21.030;2023-04-03T06:09:20;6.30;92.70
44894;DHT22;30625;52.206;21.030;2023-04-03T06:11:46;6.50;90.20
44894;DHT22;30625;52.206;21.030;2023-04-03T06:14:11;6.20;89.50
44894;DHT22;30625;52.206;21.030;2023-04-03T06:16:38;6.70;89.30
44894;DHT22;30625;52.206;21.030;2023-04-03T06:19:05;7.30;87.90
44894;DHT22;30625;52.206;21.030;2023-04-03T06:21:31;7.80;85.60
44894;DHT22;30625;52.206;21.030;2023-04-03T06:23:57;8.20;86.10
44894;DHT22;30625;52.206;21.030;2023-04-03T06:26:22;8.70;84.40
44894;DHT22;30625;52.206;21.030;2023-04-03T06:28:48;9.00;79.80
44894;DHT22;30625;52.206;21.030;2023-04-03T06:31:17;9.40;79.30
44894;DHT22;30625;52.206;21.030;2023-04-03T06:33:42;9.70;77.40
44894;DHT22;30625;52.206;21.030;2023-04-03T06:36:10;10.00;73.60
44894;DHT22;30625;52.206;21.030;2023-04-03T06:38:37;9.90;73.50
44894;DHT22;30625;52.206;21.030;2023-04-03T06:41:03;9.70;74.60
44894;DHT22;30625;52.206;21.030;2023-04-03T06:43:28;9.40;73.40
44894;DHT22;30625;52.206;21.030;2023-04-03T06:45:54;9.40;74.10
44894;DHT22;30625;52.206;21.030;2023-04-03T06:48:20;9.60;76.20
44894;DHT22;30625;52.206;21.030;2023-04-03T06:50:46;9.80;73.60
44894;DHT22;30625;52.206;21.030;2023-04-03T06:53:12;9.90;70.80
44894;DHT22;30625;52.206;21.030;2023-04-03T06:55:37;9.70;70.80
44894;DHT22;30625;52.206;21.030;2023-04-03T06:58:03;9.50;75.50
44894;DHT22;30625;52.206;21.030;2023-04-03T07:00:30;8.90;72.70
44894;DHT22;30625;52.206;21.030;2023-04-03T07:02:56;8.50;75.30
44894;DHT22;30625;52.206;21.030;2023-04-03T07:05:23;8.30;76.20
44894;DHT22;30625;52.206;21.030;2023-04-03T07:07:52;8.00;77.50
44894;DHT22;30625;52.206;21.030;2023-04-03T07:10:18;8.10;77.00
44894;DHT22;30625;52.206;21.030;2023-04-03T07:12:44;8.40;77.40
44894;DHT22;30625;52.206;21.030;2023-04-03T07:15:10;8.30;73.40
44894;DHT22;30625;52.206;21.030;2023-04-03T07:17:37;8.20;75.40
44894;DHT22;30625;52.206;21.030;2023-04-03T07:20:03;7.80;75.90
44894;DHT22;30625;52.206;21.030;2023-04-03T07:22:30;7.30;76.60
44894;DHT22;30625;52.206;21.030;2023-04-03T07:24:58;7.30;78.60
44894;DHT22;30625;52.206;21.030;2023-04-03T07:27:24;7.20;78.60
44894;DHT22;30625;52.206;21.030;2023-04-03T07:30:23;7.10;78.20
44894;DHT22;30625;52.206;21.030;2023-04-03T07:32:49;6.90;78.90
44894;DHT22;30625;52.206;21.030;2023-04-03T07:35:15;6.90;76.90
44894;DHT22;30625;52.206;21.030;2023-04-03T07:37:41;7.10;77.90
44894;DHT22;30625;52.206;21.030;2023-04-03T07:40:08;7.20;76.00
44894;DHT22;30625;52.206;21.030;2023-04-03T07:42:34;7.50;78.30
44894;DHT22;30625;52.206;21.030;2023-04-03T07:45:00;7.70;75.50
44894;DHT22;30625;52.206;21.030;2023-04-03T07:47:26;7.60;74.50
44894;DHT22;30625;52.206;21.030;2023-04-03T07:49:52;7.70;74.70
44894;DHT22;30625;52.206;21.030;2023-04-03T07:52:18;7.40;73.50
44894;DHT22;30625;52.206;21.030;2023-04-03T07:54:43;7.20;76.30
44894;DHT22;30625;52.206;21.030;2023-04-03T07:57:09;7.20;78.00
44894;DHT22;30625;52.206;21.030;2023-04-03T07:59:35;7.50;76.40
44894;DHT22;30625;52.206;21.030;2023-04-03T08:02:01;7.80;76.20
44894;DHT22;30625;52.206;21.030;2023-04-03T08:04:26;8.30;73.70
44894;DHT22;30625;52.206;21.030;2023-04-03T08:06:52;8.50;71.20
44894;DHT22;30625;52.206;21.030;2023-04-03T08:09:18;8.90;72.00
44894;DHT22;30625;52.206;21.030;2023-04-03T08:11:45;9.10;72.80
44894;DHT22;30625;52.206;21.030;2023-04-03T08:14:11;9.20;70.80
44894;DHT22;30625;52.206;21.030;2023-04-03T08:16:45;9.70;70.50
44894;DHT22;30625;52.206;21.030;2023-04-03T08:19:14;10.00;64.20
44894;DHT22;30625;52.206;21.030;2023-04-03T08:21:45;10.80;65.90
44894;DHT22;30625;52.206;21.030;2023-04-03T08:24:12;10.90;61.90
44894;DHT22;30625;52.206;21.030;2023-04-03T08:26:38;10.60;62.20
44894;DHT22;30625;52.206;21.030;2023-04-03T08:29:03;10.70;62.40
44894;DHT22;30625;52.206;21.030;2023-04-03T08:31:29;10.70;60.70
44894;DHT22;30625;52.206;21.030;2023-04-03T08:33:57;10.70;62.50
44894;DHT22;30625;52.206;21.030;2023-04-03T08:36:25;10.40;62.40
44894;DHT22;30625;52.206;21.030;2023-04-03T08:38:53;10.10;61.90
44894;DHT22;30625;52.206;21.030;2023-04-03T08:41:33;10.10;63.80
44894;DHT22;30625;52.206;21.030;2023-04-03T08:49:52;8.10;62.40
44894;DHT22;30625;52.206;21.030;2023-04-03T08:54:57;8.20;63.10
44894;DHT22;30625;52.206;21.030;2023-04-03T08:57:35;8.10;64.20
44894;DHT22;30625;52.206;21.030;2023-04-03T09:02:41;8.10;66.70
44894;DHT22;30625;52.206;21.030;2023-04-03T09:05:19;7.70;65.20
44894;DHT22;30625;52.206;21.030;2023-04-03T09:07:49;7.40;65.30
44894;DHT22;30625;52.206;21.030;2023-04-03T09:10:37;7.30;64.80
44894;DHT22;30625;52.206;21.030;2023-04-03T09:13:35;7.30;65.30
44894;DHT22;30625;52.206;21.030;2023-04-03T09:19:36;7.60;67.40
44894;DHT22;30625;52.206;21.030;2023-04-03T09:22:25;8.30;65.30
44894;DHT22;30625;52.206;21.030;2023-04-03T09:25:15;8.80;66.40
44894;DHT22;30625;52.206;21.030;2023-04-03T09:27:41;8.90;62.90
44894;DHT22;30625;52.206;21.030;2023-04-03T09:30:29;9.50;64.40
44894;DHT22;30625;52.206;21.030;2023-04-03T09:32:56;9.50;60.10
44894;DHT22;30625;52.206;21.030;2023-04-03T09:35:35;9.50;61.10
44894;DHT22;30625;52.206;21.030;2023-04-03T09:40:46;9.50;60.00
44894;DHT22;30625;52.206;21.030;2023-04-03T09:43:28;9.30;59.40
44894;DHT22;30625;52.206;21.030;2023-04-03T09:45:55;9.60;58.30
44894;DHT22;30625;52.206;21.030;2023-04-03T09:48:24;10.00;59.00
44894;DHT22;30625;52.206;21.030;2023-04-03T09:53:38;9.70;59.10
44894;DHT22;30625;52.206;21.030;2023-04-03T09:58:45;9.40;57.00
44894;DHT22;30625;52.206;21.030;2023-04-03T10:01:30;9.00;58.20
44894;DHT22;30625;52.206;21.030;2023-04-03T10:06:35;8.60;57.90
44894;DHT22;30625;52.206;21.030;2023-04-03T10:09:15;8.60;59.00
44894;DHT22;30625;52.206;21.030;2023-04-03T10:12:11;8.60;59.00
44894;DHT22;30625;52.206;21.030;2023-04-03T10:15:00;8.50;59.00
44894;DHT22;30625;52.206;21.030;2023-04-03T10:17:36;7.80;59.70
44894;DHT22;30625;52.206;21.030;2023-04-03T10:20:39;7.60;61.90
44894;DHT22;30625;52.206;21.030;2023-04-03T10:23:23;7.60;61.80
44894;DHT22;30625;52.206;21.030;2023-04-03T10:26:44;8.00;61.80
44894;DHT22;30625;52.206;21.030;2023-04-03T10:32:42;8.60;61.40
44894;DHT22;30625;52.206;21.030;2023-04-03T10:34:55;8.30;59.70
44894;DHT22;30625;52.206;21.030;2023-04-03T10:49:08;9.40;58.30
44894;DHT22;30625;52.206;21.030;2023-04-03T10:54:38;8.90;57.30
44894;DHT22;30625;52.206;21.030;2023-04-03T10:57:08;8.70;59.80
44894;DHT22;30625;52.206;21.030;2023-04-03T11:05:03;7.70;60.70
44894;DHT22;30625;52.206;21.030;2023-04-03T11:07:38;7.60;63.30
44894;DHT22;30625;52.206;21.030;2023-04-03T11:10:31;7.60;62.50
44894;DHT22;30625;52.206;21.030;2023-04-03T11:13:21;7.60;61.70
44894;DHT22;30625;52.206;21.030;2023-04-03T11:15:49;7.70;62.60
44894;DHT22;30625;52.206;21.030;2023-04-03T11:18:25;7.70;62.20
44894;DHT22;30625;52.206;21.030;2023-04-03T11:23:35;8.20;62.10
44894;DHT22;30625;52.206;21.030;2023-04-03T11:26:11;8.70;63.10
44894;DHT22;30625;52.206;21.030;2023-04-03T11:28:38;8.80;61.30
44894;DHT22;30625;52.206;21.030;2023-04-03T11:36:47;8.50;60.20
44894;DHT22;30625;52.206;21.030;2023-04-03T11:39:28;8.50;60.70
44894;DHT22;30625;52.206;21.030;2023-04-03T11:41:54;8.60;60.80
44894;DHT22;30625;52.206;21.030;2023-04-03T11:46:58;7.90;60.70
44894;DHT22;30625;52.206;21.030;2023-04-03T11:49:56;8.00;61.70
44894;DHT22;30625;52.206;21.030;2023-04-03T12:05:58;8.00;61.50
44894;DHT22;30625;52.206;21.030;2023-04-03T12:13:40;9.50;59.10
44894;DHT22;30625;52.206;21.030;2023-04-03T12:21:24;9.60;57.50
44894;DHT22;30625;52.206;21.030;2023-04-03T12:26:41;9.80;56.00
44894;DHT22;30625;52.206;21.030;2023-04-03T12:29:19;9.30;54.70
44894;DHT22;30625;52.206;21.030;2023-04-03T12:46:02;8.80;56.60
44894;DHT22;30625;52.206;21.030;2023-04-03T12:48:31;9.20;57.90
44894;DHT22;30625;52.206;21.030;2023-04-03T12:50:58;9.40;54.30
44894;DHT22;30625;52.206;21.030;2023-04-03T12:53:37;9.20;57.60
44894;DHT22;30625;52.206;21.030;2023-04-03T12:56:20;8.90;55.70
44894;DHT22;30625;52.206;21.030;2023-04-03T12:58:49;8.80;57.70
44894;DHT22;30625;52.206;21.030;2023-04-03T13:01:25;8.70;58.30
44894;DHT22;30625;52.206;21.030;2023-04-03T13:03:56;8.60;58.60
44894;DHT22;30625;52.206;21.030;2023-04-03T13:09:30;8.90;60.20
44894;DHT22;30625;52.206;21.030;2023-04-03T13:12:00;8.40;57.10
44894;DHT22;30625;52.206;21.030;2023-04-03T13:14:28;8.60;59.10
44894;DHT22;30625;52.206;21.030;2023-04-03T13:17:13;8.80;58.50
44894;DHT22;30625;52.206;21.030;2023-04-03T13:19:40;8.70;57.90
44894;DHT22;30625;52.206;21.030;2023-04-03T13:23:26;8.60;59.00
44894;DHT22;30625;52.206;21.030;2023-04-03T13:25:23;8.40;57.40
44894;DHT22;30625;52.206;21.030;2023-04-03T13:27:49;8.60;59.00
44894;DHT22;30625;52.206;21.030;2023-04-03T13:32:50;8.60;59.50
44894;DHT22;30625;52.206;21.030;2023-04-03T13:35:37;8.50;58.30
44894;DHT22;30625;52.206;21.030;2023-04-03T13:40:56;8.20;59.40
44894;DHT22;30625;52.206;21.030;2023-04-03T13:43:27;8.10;58.80
44894;DHT22;30625;52.206;21.030;2023-04-03T13:48:20;8.00;60.50
44894;DHT22;30625;52.206;21.030;2023-04-03T14:01:36;7.60;61.10
44894;DHT22;30625;52.206;21.030;2023-04-03T14:04:18;7.60;60.30
44894;DHT22;30625;52.206;21.030;2023-04-03T14:06:44;7.70;59.90
44894;DHT22;30625;52.206;21.030;2023-04-03T14:09:10;7.60;60.50
44894;DHT22;30625;52.206;21.030;2023-04-03T14:11:36;7.60;60.60
44894;DHT22;30625;52.206;21.030;2023-04-03T14:14:11;7.50;61.30
44894;DHT22;30625;52.206;21.030;2023-04-03T14:16:40;7.50;61.40
44894;DHT22;30625;52.206;21.030;2023-04-03T14:19:07;7.50;62.60
44894;DHT22;30625;52.206;21.030;2023-04-03T14:21:33;7.60;62.50
44894;DHT22;30625;52.206;21.030;2023-04-03T14:23:58;7.70;60.60
44894;DHT22;30625;52.206;21.030;2023-04-03T14:26:24;7.60;59.20
44894;DHT22;30625;52.206;21.030;2023-04-03T14:28:53;7.60;59.20
44894;DHT22;30625;52.206;21.030;2023-04-03T14:31:21;7.50;59.80
44894;DHT22;30625;52.206;21.030;2023-04-03T14:33:47;7.30;60.30
44894;DHT22;30625;52.206;21.030;2023-04-03T14:36:17;7.40;60.90
44894;DHT22;30625;52.206;21.030;2023-04-03T14:38:44;7.20;60.10
44894;DHT22;30625;52.206;21.030;2023-04-03T14:41:15;7.30;60.80
44894;DHT22;30625;52.206;21.030;2023-04-03T14:43:41;7.20;59.60
44894;DHT22;30625;52.206;21.030;2023-04-03T14:46:17;7.20;60.10
44894;DHT22;30625;52.206;21.030;2023-04-03T14:48:44;7.20;59.00
44894;DHT22;30625;52.206;21.030;2023-04-03T14:51:19;7.10;60.30
44894;DHT22;30625;52.206;21.030;2023-04-03T14:53:46;7.00;61.80
44894;DHT22;30625;52.206;21.030;2023-04-03T14:56:18;7.00;60.40
44894;DHT22;30625;52.206;21.030;2023-04-03T14:58:44;7.00;62.00
44894;DHT22;30625;52.206;21.030;2023-04-03T15:01:13;7.00;62.40
44894;DHT22;30625;52.206;21.030;2023-04-03T15:03:39;6.90;62.40
44894;DHT22;30625;52.206;21.030;2023-04-03T15:06:05;6.80;60.40
44894;DHT22;30625;52.206;21.030;2023-04-03T15:08:31;6.80;60.90
44894;DHT22;30625;52.206;21.030;2023-04-03T15:10:58;6.70;61.80
44894;DHT22;30625;52.206;21.030;2023-04-03T15:13:24;6.70;61.80
44894;DHT22;30625;52.206;21.030;2023-04-03T15:15:51;6.70;60.80
44894;DHT22;30625;52.206;21.030;2023-04-03T15:18:22;6.60;61.00
44894;DHT22;30625;52.206;21.030;2023-04-03T15:20:48;6.70;61.80
44894;DHT22;30625;52.206;21.030;2023-04-03T15:23:16;6.70;61.40
44894;DHT22;30625;52.206;21.030;2023-04-03T15:25:46;6.70;60.30
44894;DHT22;30625;52.206;21.030;2023-04-03T15:28:40;6.50;60.70
44894;DHT22;30625;52.206;21.030;2023-04-03T15:31:06;6.50;61.60
44894;DHT22;30625;52.206;21.030;2023-04-03T15:33:33;6.40;62.00
44894;DHT22;30625;52.206;21.030;2023-04-03T15:35:59;6.40;63.60
44894;DHT22;30625;52.206;21.030;2023-04-03T15:38:25;6.30;63.40
44894;DHT22;30625;52.206;21.030;2023-04-03T15:40:51;6.30;64.40
44894;DHT22;30625;52.206;21.030;2023-04-03T15:43:17;6.20;63.50
44894;DHT22;30625;52.206;21.030;2023-04-03T15:45:43;6.20;64.90
44894;DHT22;30625;52.206;21.030;2023-04-03T15:48:10;6.20;64.60
44894;DHT22;30625;52.206;21.030;2023-04-03T15:50:36;6.20;63.20
44894;DHT22;30625;52.206;21.030;2023-04-03T15:53:02;6.20;63.10
44894;DHT22;30625;52.206;21.030;2023-04-03T15:55:30;6.20;62.80
44894;DHT22;30625;52.206;21.030;2023-04-03T15:57:57;6.20;63.40
44894;DHT22;30625;52.206;21.030;2023-04-03T16:00:23;6.10;63.10
44894;DHT22;30625;52.206;21.030;2023-04-03T16:03:02;6.10;63.00
44894;DHT22;30625;52.206;21.030;2023-04-03T16:05:30;6.10;63.90
44894;DHT22;30625;52.206;21.030;2023-04-03T16:07:55;6.10;63.90
44894;DHT22;30625;52.206;21.030;2023-04-03T16:10:22;6.10;65.60
44894;DHT22;30625;52.206;21.030;2023-04-03T16:12:48;6.00;64.40
44894;DHT22;30625;52.206;21.030;2023-04-03T16:15:14;6.00;63.70
44894;DHT22;30625;52.206;21.030;2023-04-03T16:17:40;6.00;65.30
44894;DHT22;30625;52.206;21.030;2023-04-03T16:20:10;6.00;64.50
44894;DHT22;30625;52.206;21.030;2023-04-03T16:22:36;6.10;65.50
44894;DHT22;30625;52.206;21.030;2023-04-03T16:25:04;5.90;63.60
44894;DHT22;30625;52.206;21.030;2023-04-03T16:27:30;5.80;64.30
44894;DHT22;30625;52.206;21.030;2023-04-03T16:29:57;5.80;64.90
44894;DHT22;30625;52.206;21.030;2023-04-03T16:32:23;5.70;65.20
44894;DHT22;30625;52.206;21.030;2023-04-03T16:34:51;5.70;65.40
44894;DHT22;30625;52.206;21.030;2023-04-03T16:37:17;5.70;64.90
44894;DHT22;30625;52.206;21.030;2023-04-03T16:39:43;5.70;64.50
44894;DHT22;30625;52.206;21.030;2023-04-03T16:42:09;5.60;65.00
44894;DHT22;30625;52.206;21.030;2023-04-03T16:44:35;5.70;65.00
44894;DHT22;30625;52.206;21.030;2023-04-03T16:47:02;5.60;65.70
44894;DHT22;30625;52.206;21.030;2023-04-03T16:49:27;5.60;67.40
44894;DHT22;30625;52.206;21.030;2023-04-03T16:51:59;5.60;66.50
44894;DHT22;30625;52.206;21.030;2023-04-03T16:54:26;5.70;67.00
44894;DHT22;30625;52.206;21.030;2023-04-03T16:56:52;5.70;67.10
44894;DHT22;30625;52.206;21.030;2023-04-03T16:59:18;5.60;66.60
44894;DHT22;30625;52.206;21.030;2023-04-03T17:01:44;5.60;66.20
44894;DHT22;30625;52.206;21.030;2023-04-03T17:04:10;5.60;67.00
44894;DHT22;30625;52.206;21.030;2023-04-03T17:06:35;5.50;66.20
44894;DHT22;30625;52.206;21.030;2023-04-03T17:09:01;5.40;67.60
44894;DHT22;30625;52.206;21.030;2023-04-03T17:11:28;5.40;67.30
44894;DHT22;30625;52.206;21.030;2023-04-03T17:13:54;5.30;67.20
44894;DHT22;30625;52.206;21.030;2023-04-03T17:16:20;5.30;68.00
44894;DHT22;30625;52.206;21.030;2023-04-03T17:18:46;5.30;67.50
44894;DHT22;30625;52.206;21.030;2023-04-03T17:21:13;5.30;67.20
44894;DHT22;30625;52.206;21.030;2023-04-03T17:23:41;5.40;68.90
44894;DHT22;30625;52.206;21.030;2023-04-03T17:26:08;5.30;68.70
44894;DHT22;30625;52.206;21.030;2023-04-03T17:28:34;5.30;67.70
44894;DHT22;30625;52.206;21.030;2023-04-03T17:31:01;5.30;69.30
44894;DHT22;30625;52.206;21.030;2023-04-03T17:33:28;5.30;69.00
44894;DHT22;30625;52.206;21.030;2023-04-03T17:36:00;5.20;68.50
44894;DHT22;30625;52.206;21.030;2023-04-03T17:38:30;5.20;67.40
44894;DHT22;30625;52.206;21.030;2023-04-03T17:41:01;5.10;68.00
44894;DHT22;30625;52.206;21.030;2023-04-03T17:43:27;5.00;68.00
44894;DHT22;30625;52.206;21.030;2023-04-03T17:45:53;5.00;68.70
44894;DHT22;30625;52.206;21.030;2023-04-03T17:48:19;5.00;68.00
44894;DHT22;30625;52.206;21.030;2023-04-03T17:50:44;5.10;68.20